EGPK/PIK METAR and TAF weather

Enter ICAO airport designator
Station Type Date Time Source
EGPK METAR 2021/01/16 03:20 UTC NOAA

EGPK 160320Z 16022G33KT 9000 -RA FEW025 SCT049 05/03 Q1007


Station Type Date Time Source
EGPK Decoded METAR 2021/01/16 03:20 UTC NOAA

Prestwick Airport, United Kingdom (EGPK) 55-30N 004-35W 0M
Jan 15, 2021 - 10:20 PM EST / 2021.01.16 0320 UTC
Wind: from the SSE (160 degrees) at 25 MPH (22 KT) gusting to 38 MPH (33 KT):0
Visibility: 5 mile(s):0
Sky conditions: partly cloudy
Weather: light rain
Temperature: 41 F (5 C)
Dew Point: 37 F (3 C)
Relative Humidity: 86%
Pressure (altimeter): 29.74 in. Hg (1007 hPa)
ob: EGPK 160320Z 16022G33KT 9000 -RA FEW025 SCT049 05/03 Q1007
cycle: 3

Station Type Date Time Source
EGPK TAF 2021/01/15 18:09 UTC NOAA

TAF EGPK 151656Z 1518/1618 15009KT 9999 SCT025 PROB40
TEMPO 1518/1520 BKN014
TEMPO 1520/1607 15015G25KT 7000 -RA BKN012 PROB30
TEMPO 1520/1601 4000 RASN BKN008 PROB30
TEMPO 1601/1607 17022G35KT 4000 RA BKN008
BECMG 1606/1609 23015KT
TEMPO 1607/1618 6000 SHRA BKN012
TEMPO 1608/1612 24018G28KT
TEMPO 1612/1618 27020G32KT

Example: see airport list